Airfield :
LOGIN :

Register | Disclaimer

   EN    FR    IT 

 










Legend :    VFR   Marginal VFR   IFR   Intensive IFR   Very Intensive IFR
Visi :
Ceiling :
>= 8 km
>= 3000ft
5 to 8 km
1000 to 3000 ft
1500m to 5 km
500 to 1000 ft
800 to 1500m
200 to 500 ft
< 800m
< 200 ft
Symbols :   Thunderstorms  Fog  Heavy snow  Heavy precipitations  Wind > 20 kt
SIGMETs :     Misc.  Thunderstorms  Icing  Turbulence  Mountain Waves  Volcanic Ashes







- Airport Elevation : 659 ft
- IATA code : LGG


EBLG - Liège

CURRENT METAR :
  • 241320Z 02006KT 9999 FEW025 18/11 Q1022 NOSIG

EXPIRED METARs :
  • 241250Z 01005KT 300V070 9999 FEW025 19/11 Q1022 NOSIG
  • 241220Z VRB01KT 9999 FEW020 20/10 Q1022 NOSIG
  • 241150Z VRB01KT 9999 FEW020 20/09 Q1022 NOSIG
  • 241120Z 11004KT 070V150 9999 FEW020 19/11 Q1022 NOSIG
  • 241050Z 10004KT 020V160 CAVOK 19/12 Q1022 NOSIG

TAF TAF EBLG
Valid from the 24 at 12:00 until the 25 at 18:00 UTC


241110Z 2412/2518 08005KT 9999 FEW030
PROB40 2501/2507 4000 BR
No reported NOTAMs for that airfield.



MET'MAP, your aeronautical weather chart ! - Copyright ORBIFLY December 2007 - Disclaimer

ORBIFLY MET'MAP TEAM :

Programming & Development : Alexandra Zaïnal
Concept & Development : Baudouin d'Aumeries
Co-Development & Prog : Marc-Olivier Méhu
Technical & hardware support : Manuel Goepfert

Contact : metmap@orbifly.com




SOURCES & CREDITS :

   NOAA